sensor_id;sensor_type;location;lat;lon;timestamp;P1;durP1;ratioP1;P2;durP2;ratioP2
12760;SDS011;6444;49.742;6.114;2023-04-24T00:01:23;2.72;;;2.53;;
12760;SDS011;6444;49.742;6.114;2023-04-24T00:03:50;4.20;;;2.63;;
12760;SDS011;6444;49.742;6.114;2023-04-24T00:06:16;3.45;;;2.90;;
12760;SDS011;6444;49.742;6.114;2023-04-24T00:08:43;3.37;;;2.92;;
12760;SDS011;6444;49.742;6.114;2023-04-24T00:11:10;3.62;;;2.90;;
12760;SDS011;6444;49.742;6.114;2023-04-24T00:13:37;3.15;;;2.85;;
12760;SDS011;6444;49.742;6.114;2023-04-24T00:16:03;4.62;;;3.25;;
12760;SDS011;6444;49.742;6.114;2023-04-24T00:18:30;4.15;;;3.20;;
12760;SDS011;6444;49.742;6.114;2023-04-24T00:20:56;5.15;;;4.12;;
12760;SDS011;6444;49.742;6.114;2023-04-24T00:23:23;4.00;;;3.70;;
12760;SDS011;6444;49.742;6.114;2023-04-24T00:25:50;7.00;;;4.60;;
12760;SDS011;6444;49.742;6.114;2023-04-24T00:28:17;4.27;;;3.87;;
12760;SDS011;6444;49.742;6.114;2023-04-24T00:30:44;4.28;;;3.87;;
12760;SDS011;6444;49.742;6.114;2023-04-24T00:33:10;5.07;;;3.67;;
12760;SDS011;6444;49.742;6.114;2023-04-24T00:35:37;5.40;;;4.37;;
12760;SDS011;6444;49.742;6.114;2023-04-24T00:38:03;5.37;;;4.32;;
12760;SDS011;6444;49.742;6.114;2023-04-24T00:40:30;5.05;;;4.07;;
12760;SDS011;6444;49.742;6.114;2023-04-24T00:42:57;5.15;;;3.92;;
12760;SDS011;6444;49.742;6.114;2023-04-24T00:45:23;4.47;;;4.03;;
12760;SDS011;6444;49.742;6.114;2023-04-24T00:47:50;5.40;;;4.78;;
12760;SDS011;6444;49.742;6.114;2023-04-24T00:50:17;5.15;;;3.90;;
12760;SDS011;6444;49.742;6.114;2023-04-24T00:52:44;5.62;;;4.68;;
12760;SDS011;6444;49.742;6.114;2023-04-24T00:55:11;6.20;;;4.23;;
12760;SDS011;6444;49.742;6.114;2023-04-24T00:57:37;5.70;;;5.20;;
12760;SDS011;6444;49.742;6.114;2023-04-24T01:00:05;8.27;;;4.83;;
12760;SDS011;6444;49.742;6.114;2023-04-24T01:02:32;6.43;;;4.60;;
12760;SDS011;6444;49.742;6.114;2023-04-24T01:04:58;6.67;;;4.60;;
12760;SDS011;6444;49.742;6.114;2023-04-24T01:07:25;5.30;;;4.80;;
12760;SDS011;6444;49.742;6.114;2023-04-24T01:09:51;7.73;;;5.27;;
12760;SDS011;6444;49.742;6.114;2023-04-24T01:12:19;6.40;;;4.40;;
12760;SDS011;6444;49.742;6.114;2023-04-24T01:14:45;6.30;;;5.00;;
12760;SDS011;6444;49.742;6.114;2023-04-24T01:17:12;5.07;;;4.63;;
12760;SDS011;6444;49.742;6.114;2023-04-24T01:19:39;5.67;;;5.17;;
12760;SDS011;6444;49.742;6.114;2023-04-24T01:22:12;5.93;;;5.33;;
12760;SDS011;6444;49.742;6.114;2023-04-24T01:24:39;5.70;;;5.10;;
12760;SDS011;6444;49.742;6.114;2023-04-24T01:27:05;6.43;;;5.73;;
12760;SDS011;6444;49.742;6.114;2023-04-24T01:29:32;7.00;;;5.97;;
12760;SDS011;6444;49.742;6.114;2023-04-24T01:31:59;9.13;;;5.93;;
12760;SDS011;6444;49.742;6.114;2023-04-24T01:34:26;7.20;;;5.53;;
12760;SDS011;6444;49.742;6.114;2023-04-24T01:36:52;8.20;;;7.32;;
12760;SDS011;6444;49.742;6.114;2023-04-24T01:39:18;8.03;;;6.67;;
12760;SDS011;6444;49.742;6.114;2023-04-24T01:41:45;7.20;;;6.00;;
12760;SDS011;6444;49.742;6.114;2023-04-24T01:44:12;13.17;;;6.53;;
12760;SDS011;6444;49.742;6.114;2023-04-24T01:46:38;8.87;;;6.67;;
12760;SDS011;6444;49.742;6.114;2023-04-24T01:49:05;9.60;;;6.80;;
12760;SDS011;6444;49.742;6.114;2023-04-24T01:51:32;11.50;;;7.20;;
12760;SDS011;6444;49.742;6.114;2023-04-24T01:53:59;10.10;;;6.97;;
12760;SDS011;6444;49.742;6.114;2023-04-24T01:56:26;10.23;;;7.60;;
12760;SDS011;6444;49.742;6.114;2023-04-24T01:58:52;10.53;;;7.43;;
12760;SDS011;6444;49.742;6.114;2023-04-24T02:01:19;10.18;;;9.15;;
12760;SDS011;6444;49.742;6.114;2023-04-24T02:03:46;8.80;;;7.83;;
12760;SDS011;6444;49.742;6.114;2023-04-24T02:06:12;8.90;;;7.73;;
12760;SDS011;6444;49.742;6.114;2023-04-24T02:08:39;10.10;;;8.03;;
12760;SDS011;6444;49.742;6.114;2023-04-24T02:11:06;11.63;;;7.63;;
12760;SDS011;6444;49.742;6.114;2023-04-24T02:13:32;11.13;;;8.37;;
12760;SDS011;6444;49.742;6.114;2023-04-24T02:16:00;9.40;;;7.97;;
12760;SDS011;6444;49.742;6.114;2023-04-24T02:18:26;10.77;;;8.50;;
12760;SDS011;6444;49.742;6.114;2023-04-24T02:20:54;11.43;;;8.20;;
12760;SDS011;6444;49.742;6.114;2023-04-24T02:23:20;13.40;;;10.77;;
12760;SDS011;6444;49.742;6.114;2023-04-24T02:25:47;12.13;;;9.60;;
12760;SDS011;6444;49.742;6.114;2023-04-24T02:28:14;10.97;;;8.50;;
12760;SDS011;6444;49.742;6.114;2023-04-24T02:30:40;12.83;;;9.30;;
12760;SDS011;6444;49.742;6.114;2023-04-24T02:33:08;14.07;;;8.90;;
12760;SDS011;6444;49.742;6.114;2023-04-24T02:35:34;13.67;;;9.60;;
12760;SDS011;6444;49.742;6.114;2023-04-24T02:38:01;10.63;;;9.10;;
12760;SDS011;6444;49.742;6.114;2023-04-24T02:40:28;11.63;;;9.30;;
12760;SDS011;6444;49.742;6.114;2023-04-24T02:42:55;11.93;;;9.73;;
12760;SDS011;6444;49.742;6.114;2023-04-24T02:45:22;11.77;;;9.60;;
12760;SDS011;6444;49.742;6.114;2023-04-24T02:47:48;12.73;;;10.20;;
12760;SDS011;6444;49.742;6.114;2023-04-24T02:50:15;13.47;;;9.77;;
12760;SDS011;6444;49.742;6.114;2023-04-24T02:52:41;12.97;;;10.30;;
12760;SDS011;6444;49.742;6.114;2023-04-24T02:55:08;12.83;;;10.00;;
12760;SDS011;6444;49.742;6.114;2023-04-24T02:57:35;13.00;;;10.73;;
12760;SDS011;6444;49.742;6.114;2023-04-24T03:00:01;13.90;;;10.70;;
12760;SDS011;6444;49.742;6.114;2023-04-24T03:02:28;14.85;;;12.63;;
12760;SDS011;6444;49.742;6.114;2023-04-24T03:04:55;14.10;;;10.47;;
12760;SDS011;6444;49.742;6.114;2023-04-24T03:07:21;13.27;;;11.88;;
12760;SDS011;6444;49.742;6.114;2023-04-24T03:09:48;12.53;;;10.23;;
12760;SDS011;6444;49.742;6.114;2023-04-24T03:12:15;12.50;;;11.17;;
12760;SDS011;6444;49.742;6.114;2023-04-24T03:14:41;12.70;;;10.30;;
12760;SDS011;6444;49.742;6.114;2023-04-24T03:17:08;13.73;;;10.20;;
12760;SDS011;6444;49.742;6.114;2023-04-24T03:19:35;14.00;;;10.13;;
12760;SDS011;6444;49.742;6.114;2023-04-24T03:22:02;16.87;;;10.37;;
12760;SDS011;6444;49.742;6.114;2023-04-24T03:24:29;13.50;;;10.57;;
12760;SDS011;6444;49.742;6.114;2023-04-24T03:26:55;14.20;;;10.70;;
12760;SDS011;6444;49.742;6.114;2023-04-24T03:29:22;11.27;;;9.97;;
12760;SDS011;6444;49.742;6.114;2023-04-24T03:31:49;12.47;;;10.53;;
12760;SDS011;6444;49.742;6.114;2023-04-24T03:34:15;13.40;;;10.13;;
12760;SDS011;6444;49.742;6.114;2023-04-24T03:36:42;14.83;;;11.13;;
12760;SDS011;6444;49.742;6.114;2023-04-24T03:39:08;14.07;;;11.40;;
12760;SDS011;6444;49.742;6.114;2023-04-24T03:41:35;13.00;;;11.17;;
12760;SDS011;6444;49.742;6.114;2023-04-24T03:44:02;15.80;;;10.60;;
12760;SDS011;6444;49.742;6.114;2023-04-24T03:46:28;15.82;;;13.23;;
12760;SDS011;6444;49.742;6.114;2023-04-24T03:48:55;12.00;;;10.53;;
12760;SDS011;6444;49.742;6.114;2023-04-24T03:51:22;13.40;;;10.43;;
12760;SDS011;6444;49.742;6.114;2023-04-24T03:53:48;14.50;;;10.77;;
12760;SDS011;6444;49.742;6.114;2023-04-24T03:56:15;14.20;;;10.37;;
12760;SDS011;6444;49.742;6.114;2023-04-24T03:58:42;12.57;;;10.60;;
12760;SDS011;6444;49.742;6.114;2023-04-24T04:01:09;13.57;;;11.37;;
12760;SDS011;6444;49.742;6.114;2023-04-24T04:03:35;13.27;;;11.70;;
12760;SDS011;6444;49.742;6.114;2023-04-24T04:06:02;13.77;;;11.37;;
12760;SDS011;6444;49.742;6.114;2023-04-24T04:08:29;13.03;;;10.23;;
12760;SDS011;6444;49.742;6.114;2023-04-24T04:10:55;14.73;;;10.83;;
12760;SDS011;6444;49.742;6.114;2023-04-24T04:13:22;17.12;;;15.13;;
12760;SDS011;6444;49.742;6.114;2023-04-24T04:15:49;16.20;;;14.50;;
12760;SDS011;6444;49.742;6.114;2023-04-24T04:18:15;15.27;;;13.68;;
12760;SDS011;6444;49.742;6.114;2023-04-24T04:20:42;14.93;;;12.02;;
12760;SDS011;6444;49.742;6.114;2023-04-24T04:23:08;13.27;;;11.17;;
12760;SDS011;6444;49.742;6.114;2023-04-24T04:25:35;14.23;;;11.17;;
12760;SDS011;6444;49.742;6.114;2023-04-24T04:28:02;13.93;;;11.43;;
12760;SDS011;6444;49.742;6.114;2023-04-24T04:30:29;12.57;;;10.20;;
12760;SDS011;6444;49.742;6.114;2023-04-24T04:32:56;14.33;;;10.47;;
12760;SDS011;6444;49.742;6.114;2023-04-24T04:35:23;14.33;;;10.20;;
12760;SDS011;6444;49.742;6.114;2023-04-24T04:37:49;12.95;;;11.57;;
12760;SDS011;6444;49.742;6.114;2023-04-24T04:40:16;13.27;;;9.73;;
12760;SDS011;6444;49.742;6.114;2023-04-24T04:42:42;12.10;;;10.77;;
12760;SDS011;6444;49.742;6.114;2023-04-24T04:45:09;13.27;;;10.33;;
12760;SDS011;6444;49.742;6.114;2023-04-24T04:47:36;11.63;;;9.97;;
12760;SDS011;6444;49.742;6.114;2023-04-24T04:50:02;10.57;;;8.43;;
12760;SDS011;6444;49.742;6.114;2023-04-24T04:52:29;9.07;;;8.17;;
12760;SDS011;6444;49.742;6.114;2023-04-24T04:54:56;10.67;;;7.50;;
12760;SDS011;6444;49.742;6.114;2023-04-24T04:57:22;10.83;;;7.70;;
12760;SDS011;6444;49.742;6.114;2023-04-24T04:59:49;16.50;;;12.93;;
12760;SDS011;6444;49.742;6.114;2023-04-24T05:02:15;13.23;;;10.70;;
12760;SDS011;6444;49.742;6.114;2023-04-24T05:04:42;13.07;;;9.67;;
12760;SDS011;6444;49.742;6.114;2023-04-24T05:07:09;10.10;;;9.10;;
12760;SDS011;6444;49.742;6.114;2023-04-24T05:09:36;9.33;;;7.90;;
12760;SDS011;6444;49.742;6.114;2023-04-24T05:12:03;8.00;;;7.20;;
12760;SDS011;6444;49.742;6.114;2023-04-24T05:14:29;11.70;;;7.87;;
12760;SDS011;6444;49.742;6.114;2023-04-24T05:16:56;9.40;;;8.00;;
12760;SDS011;6444;49.742;6.114;2023-04-24T05:19:23;10.48;;;9.40;;
12760;SDS011;6444;49.742;6.114;2023-04-24T05:21:49;9.33;;;7.90;;
12760;SDS011;6444;49.742;6.114;2023-04-24T05:24:16;8.50;;;7.60;;
12760;SDS011;6444;49.742;6.114;2023-04-24T05:26:43;7.87;;;7.07;;
12760;SDS011;6444;49.742;6.114;2023-04-24T05:29:09;9.47;;;8.00;;
12760;SDS011;6444;49.742;6.114;2023-04-24T05:31:36;10.27;;;7.70;;
12760;SDS011;6444;49.742;6.114;2023-04-24T05:34:02;9.63;;;7.80;;
12760;SDS011;6444;49.742;6.114;2023-04-24T05:36:29;9.50;;;7.50;;
12760;SDS011;6444;49.742;6.114;2023-04-24T05:38:56;9.50;;;7.63;;
12760;SDS011;6444;49.742;6.114;2023-04-24T05:41:22;10.33;;;8.50;;
12760;SDS011;6444;49.742;6.114;2023-04-24T05:43:49;12.70;;;9.00;;
12760;SDS011;6444;49.742;6.114;2023-04-24T05:46:16;10.80;;;8.50;;
12760;SDS011;6444;49.742;6.114;2023-04-24T05:48:42;10.60;;;8.77;;
12760;SDS011;6444;49.742;6.114;2023-04-24T05:51:09;10.00;;;8.40;;
12760;SDS011;6444;49.742;6.114;2023-04-24T05:53:35;10.73;;;9.10;;
12760;SDS011;6444;49.742;6.114;2023-04-24T05:56:02;12.03;;;9.20;;
12760;SDS011;6444;49.742;6.114;2023-04-24T05:58:29;11.33;;;9.20;;
12760;SDS011;6444;49.742;6.114;2023-04-24T06:00:55;12.57;;;9.90;;
12760;SDS011;6444;49.742;6.114;2023-04-24T06:03:22;12.10;;;9.17;;
12760;SDS011;6444;49.742;6.114;2023-04-24T06:05:49;11.33;;;8.73;;
12760;SDS011;6444;49.742;6.114;2023-04-24T06:08:15;12.27;;;9.87;;
12760;SDS011;6444;49.742;6.114;2023-04-24T06:10:42;9.83;;;8.83;;
12760;SDS011;6444;49.742;6.114;2023-04-24T06:13:09;10.90;;;9.13;;
12760;SDS011;6444;49.742;6.114;2023-04-24T06:15:35;10.87;;;9.03;;
12760;SDS011;6444;49.742;6.114;2023-04-24T06:18:02;10.10;;;8.40;;
12760;SDS011;6444;49.742;6.114;2023-04-24T06:20:29;10.67;;;8.83;;
12760;SDS011;6444;49.742;6.114;2023-04-24T06:22:55;10.00;;;7.90;;
12760;SDS011;6444;49.742;6.114;2023-04-24T06:25:24;13.32;;;10.60;;
12760;SDS011;6444;49.742;6.114;2023-04-24T06:27:49;12.48;;;11.18;;
12760;SDS011;6444;49.742;6.114;2023-04-24T06:30:15;10.43;;;9.43;;
12760;SDS011;6444;49.742;6.114;2023-04-24T06:32:42;13.50;;;9.17;;
12760;SDS011;6444;49.742;6.114;2023-04-24T06:35:08;12.20;;;8.73;;
12760;SDS011;6444;49.742;6.114;2023-04-24T06:37:35;9.93;;;8.47;;
12760;SDS011;6444;49.742;6.114;2023-04-24T06:40:05;11.90;;;8.83;;
12760;SDS011;6444;49.742;6.114;2023-04-24T06:42:33;11.23;;;9.40;;
12760;SDS011;6444;49.742;6.114;2023-04-24T06:44:59;11.97;;;9.07;;
12760;SDS011;6444;49.742;6.114;2023-04-24T06:47:26;13.97;;;8.93;;
12760;SDS011;6444;49.742;6.114;2023-04-24T06:49:53;11.30;;;9.03;;
12760;SDS011;6444;49.742;6.114;2023-04-24T06:52:20;12.03;;;10.13;;
12760;SDS011;6444;49.742;6.114;2023-04-24T06:54:47;14.33;;;9.83;;
12760;SDS011;6444;49.742;6.114;2023-04-24T06:57:13;12.03;;;9.30;;
12760;SDS011;6444;49.742;6.114;2023-04-24T06:59:40;12.90;;;8.50;;
12760;SDS011;6444;49.742;6.114;2023-04-24T07:02:07;12.10;;;9.30;;
12760;SDS011;6444;49.742;6.114;2023-04-24T07:04:34;11.07;;;9.27;;
12760;SDS011;6444;49.742;6.114;2023-04-24T07:07:01;12.10;;;9.73;;
12760;SDS011;6444;49.742;6.114;2023-04-24T07:09:27;12.10;;;8.73;;
12760;SDS011;6444;49.742;6.114;2023-04-24T07:11:54;13.90;;;9.50;;
12760;SDS011;6444;49.742;6.114;2023-04-24T07:14:20;13.67;;;9.60;;
12760;SDS011;6444;49.742;6.114;2023-04-24T07:16:47;12.37;;;8.80;;
12760;SDS011;6444;49.742;6.114;2023-04-24T07:19:14;13.40;;;12.00;;
12760;SDS011;6444;49.742;6.114;2023-04-24T07:21:40;13.10;;;11.65;;
12760;SDS011;6444;49.742;6.114;2023-04-24T07:24:07;12.75;;;8.90;;
12760;SDS011;6444;49.742;6.114;2023-04-24T07:26:34;15.97;;;9.93;;
12760;SDS011;6444;49.742;6.114;2023-04-24T07:29:00;11.53;;;8.60;;
12760;SDS011;6444;49.742;6.114;2023-04-24T07:31:27;12.57;;;8.77;;
12760;SDS011;6444;49.742;6.114;2023-04-24T07:33:54;13.23;;;9.30;;
12760;SDS011;6444;49.742;6.114;2023-04-24T07:36:21;10.97;;;8.53;;
12760;SDS011;6444;49.742;6.114;2023-04-24T07:38:47;11.73;;;8.20;;
12760;SDS011;6444;49.742;6.114;2023-04-24T07:41:14;11.23;;;8.97;;
12760;SDS011;6444;49.742;6.114;2023-04-24T07:43:41;13.67;;;9.17;;
12760;SDS011;6444;49.742;6.114;2023-04-24T07:46:10;13.63;;;8.87;;
12760;SDS011;6444;49.742;6.114;2023-04-24T07:48:37;13.87;;;8.83;;
12760;SDS011;6444;49.742;6.114;2023-04-24T07:51:04;11.80;;;9.43;;
12760;SDS011;6444;49.742;6.114;2023-04-24T07:53:34;13.70;;;9.20;;
12760;SDS011;6444;49.742;6.114;2023-04-24T07:56:00;12.43;;;9.87;;
12760;SDS011;6444;49.742;6.114;2023-04-24T07:58:30;10.83;;;8.57;;
12760;SDS011;6444;49.742;6.114;2023-04-24T08:00:59;11.50;;;9.07;;
12760;SDS011;6444;49.742;6.114;2023-04-24T08:03:26;10.38;;;8.38;;
12760;SDS011;6444;49.742;6.114;2023-04-24T08:05:52;10.67;;;8.73;;
12760;SDS011;6444;49.742;6.114;2023-04-24T08:08:22;12.93;;;8.90;;
12760;SDS011;6444;49.742;6.114;2023-04-24T08:10:49;12.13;;;8.47;;
12760;SDS011;6444;49.742;6.114;2023-04-24T08:13:15;9.73;;;8.63;;
12760;SDS011;6444;49.742;6.114;2023-04-24T08:15:42;14.30;;;8.93;;
12760;SDS011;6444;49.742;6.114;2023-04-24T08:18:09;9.75;;;8.10;;
12760;SDS011;6444;49.742;6.114;2023-04-24T08:20:35;11.00;;;9.10;;
12760;SDS011;6444;49.742;6.114;2023-04-24T08:23:02;10.85;;;8.30;;
12760;SDS011;6444;49.742;6.114;2023-04-24T08:25:29;9.33;;;7.20;;
12760;SDS011;6444;49.742;6.114;2023-04-24T08:27:55;10.77;;;8.87;;
12760;SDS011;6444;49.742;6.114;2023-04-24T08:30:23;10.60;;;7.87;;
12760;SDS011;6444;49.742;6.114;2023-04-24T08:32:49;13.20;;;8.47;;
12760;SDS011;6444;49.742;6.114;2023-04-24T08:35:16;15.43;;;9.93;;
12760;SDS011;6444;49.742;6.114;2023-04-24T08:37:43;12.77;;;8.50;;
12760;SDS011;6444;49.742;6.114;2023-04-24T08:40:13;14.10;;;9.23;;
12760;SDS011;6444;49.742;6.114;2023-04-24T08:42:39;9.75;;;7.68;;
12760;SDS011;6444;49.742;6.114;2023-04-24T08:45:06;10.75;;;8.35;;
12760;SDS011;6444;49.742;6.114;2023-04-24T08:47:33;10.00;;;7.43;;
12760;SDS011;6444;49.742;6.114;2023-04-24T08:50:00;8.25;;;7.43;;
12760;SDS011;6444;49.742;6.114;2023-04-24T08:52:27;8.35;;;7.30;;
12760;SDS011;6444;49.742;6.114;2023-04-24T08:54:53;8.98;;;8.07;;
12760;SDS011;6444;49.742;6.114;2023-04-24T08:57:20;7.32;;;6.43;;
12760;SDS011;6444;49.742;6.114;2023-04-24T08:59:46;9.68;;;8.57;;
12760;SDS011;6444;49.742;6.114;2023-04-24T09:02:13;9.95;;;8.15;;
12760;SDS011;6444;49.742;6.114;2023-04-24T09:04:40;8.85;;;6.93;;
12760;SDS011;6444;49.742;6.114;2023-04-24T09:07:06;8.32;;;6.32;;
12760;SDS011;6444;49.742;6.114;2023-04-24T09:09:33;9.10;;;6.50;;
12760;SDS011;6444;49.742;6.114;2023-04-24T09:12:00;9.90;;;6.07;;
12760;SDS011;6444;49.742;6.114;2023-04-24T09:14:26;7.75;;;5.50;;
12760;SDS011;6444;49.742;6.114;2023-04-24T09:16:54;7.05;;;6.35;;
12760;SDS011;6444;49.742;6.114;2023-04-24T09:19:20;7.15;;;6.00;;
12760;SDS011;6444;49.742;6.114;2023-04-24T09:21:47;6.62;;;5.22;;
12760;SDS011;6444;49.742;6.114;2023-04-24T09:24:15;6.15;;;4.87;;
12760;SDS011;6444;49.742;6.114;2023-04-24T09:26:40;7.20;;;5.47;;
12760;SDS011;6444;49.742;6.114;2023-04-24T09:29:07;7.35;;;5.60;;
12760;SDS011;6444;49.742;6.114;2023-04-24T09:31:34;6.57;;;5.40;;
12760;SDS011;6444;49.742;6.114;2023-04-24T09:34:01;6.53;;;5.40;;
12760;SDS011;6444;49.742;6.114;2023-04-24T09:36:27;6.57;;;5.28;;
12760;SDS011;6444;49.742;6.114;2023-04-24T09:38:55;5.85;;;4.90;;
12760;SDS011;6444;49.742;6.114;2023-04-24T09:41:20;6.37;;;5.57;;
12760;SDS011;6444;49.742;6.114;2023-04-24T09:43:47;6.90;;;4.95;;
12760;SDS011;6444;49.742;6.114;2023-04-24T09:46:13;5.30;;;4.80;;
12760;SDS011;6444;49.742;6.114;2023-04-24T09:48:40;6.00;;;4.47;;
12760;SDS011;6444;49.742;6.114;2023-04-24T09:51:07;5.20;;;4.70;;
12760;SDS011;6444;49.742;6.114;2023-04-24T09:53:33;5.12;;;4.40;;
12760;SDS011;6444;49.742;6.114;2023-04-24T09:56:08;5.70;;;4.28;;
12760;SDS011;6444;49.742;6.114;2023-04-24T09:58:34;4.70;;;4.18;;
12760;SDS011;6444;49.742;6.114;2023-04-24T10:01:00;5.90;;;4.70;;
12760;SDS011;6444;49.742;6.114;2023-04-24T10:03:29;5.43;;;4.70;;
12760;SDS011;6444;49.742;6.114;2023-04-24T10:05:53;4.85;;;3.97;;
12760;SDS011;6444;49.742;6.114;2023-04-24T10:08:20;4.72;;;4.20;;
12760;SDS011;6444;49.742;6.114;2023-04-24T10:10:46;4.15;;;3.75;;
12760;SDS011;6444;49.742;6.114;2023-04-24T10:13:13;3.85;;;3.30;;
12760;SDS011;6444;49.742;6.114;2023-04-24T10:15:40;5.28;;;3.60;;
12760;SDS011;6444;49.742;6.114;2023-04-24T10:18:07;4.22;;;3.60;;
12760;SDS011;6444;49.742;6.114;2023-04-24T10:20:34;4.10;;;3.70;;
12760;SDS011;6444;49.742;6.114;2023-04-24T10:23:00;3.80;;;3.40;;
12760;SDS011;6444;49.742;6.114;2023-04-24T10:25:27;4.10;;;3.70;;
12760;SDS011;6444;49.742;6.114;2023-04-24T10:27:53;5.30;;;4.10;;
12760;SDS011;6444;49.742;6.114;2023-04-24T10:30:21;5.85;;;3.90;;
12760;SDS011;6444;49.742;6.114;2023-04-24T10:32:47;5.40;;;3.78;;
12760;SDS011;6444;49.742;6.114;2023-04-24T10:35:14;4.53;;;3.80;;
12760;SDS011;6444;49.742;6.114;2023-04-24T10:37:42;7.62;;;4.32;;
12760;SDS011;6444;49.742;6.114;2023-04-24T10:40:07;4.70;;;4.20;;
12760;SDS011;6444;49.742;6.114;2023-04-24T10:42:34;5.12;;;4.47;;
12760;SDS011;6444;49.742;6.114;2023-04-24T10:45:04;5.18;;;4.30;;
12760;SDS011;6444;49.742;6.114;2023-04-24T10:47:39;6.82;;;4.03;;
12760;SDS011;6444;49.742;6.114;2023-04-24T10:49:58;6.47;;;5.00;;
12760;SDS011;6444;49.742;6.114;2023-04-24T10:52:26;4.87;;;4.37;;
12760;SDS011;6444;49.742;6.114;2023-04-24T10:54:51;6.75;;;4.40;;
12760;SDS011;6444;49.742;6.114;2023-04-24T11:02:37;7.12;;;4.95;;
12760;SDS011;6444;49.742;6.114;2023-04-24T11:05:03;6.43;;;5.30;;
12760;SDS011;6444;49.742;6.114;2023-04-24T11:07:29;6.97;;;5.80;;
12760;SDS011;6444;49.742;6.114;2023-04-24T11:09:58;7.78;;;5.70;;
12760;SDS011;6444;49.742;6.114;2023-04-24T11:12:25;6.95;;;5.80;;
12760;SDS011;6444;49.742;6.114;2023-04-24T11:14:59;6.70;;;5.70;;
12760;SDS011;6444;49.742;6.114;2023-04-24T11:17:35;7.97;;;7.17;;
12760;SDS011;6444;49.742;6.114;2023-04-24T11:20:01;6.70;;;6.03;;
12760;SDS011;6444;49.742;6.114;2023-04-24T11:22:27;10.25;;;5.95;;
12760;SDS011;6444;49.742;6.114;2023-04-24T11:24:54;6.87;;;5.87;;
12760;SDS011;6444;49.742;6.114;2023-04-24T11:27:21;9.68;;;6.18;;
12760;SDS011;6444;49.742;6.114;2023-04-24T11:32:16;8.00;;;6.43;;
12760;SDS011;6444;49.742;6.114;2023-04-24T11:35:00;8.30;;;6.03;;
12760;SDS011;6444;49.742;6.114;2023-04-24T11:37:33;7.47;;;6.50;;
12760;SDS011;6444;49.742;6.114;2023-04-24T11:39:56;8.35;;;6.68;;
12760;SDS011;6444;49.742;6.114;2023-04-24T11:42:21;7.43;;;6.20;;
12760;SDS011;6444;49.742;6.114;2023-04-24T11:44:49;6.47;;;5.68;;
12760;SDS011;6444;49.742;6.114;2023-04-24T11:47:29;8.00;;;6.53;;
12760;SDS011;6444;49.742;6.114;2023-04-24T11:49:57;6.43;;;5.40;;
12760;SDS011;6444;49.742;6.114;2023-04-24T11:52:23;8.63;;;5.37;;
12760;SDS011;6444;49.742;6.114;2023-04-24T11:54:50;7.57;;;6.50;;
12760;SDS011;6444;49.742;6.114;2023-04-24T11:57:18;6.82;;;5.55;;
12760;SDS011;6444;49.742;6.114;2023-04-24T11:59:44;7.05;;;5.50;;
12760;SDS011;6444;49.742;6.114;2023-04-24T12:02:19;6.90;;;6.20;;
12760;SDS011;6444;49.742;6.114;2023-04-24T12:04:40;7.07;;;5.75;;
12760;SDS011;6444;49.742;6.114;2023-04-24T12:07:09;6.87;;;5.80;;
12760;SDS011;6444;49.742;6.114;2023-04-24T12:09:45;6.93;;;5.80;;
12760;SDS011;6444;49.742;6.114;2023-04-24T12:12:12;6.57;;;5.25;;
12760;SDS011;6444;49.742;6.114;2023-04-24T12:14:42;7.30;;;5.82;;
12760;SDS011;6444;49.742;6.114;2023-04-24T12:17:08;6.25;;;5.45;;
12760;SDS011;6444;49.742;6.114;2023-04-24T12:19:35;6.05;;;5.03;;
12760;SDS011;6444;49.742;6.114;2023-04-24T12:22:03;5.90;;;5.05;;
12760;SDS011;6444;49.742;6.114;2023-04-24T12:24:28;6.47;;;5.43;;
12760;SDS011;6444;49.742;6.114;2023-04-24T12:26:55;5.30;;;4.80;;
12760;SDS011;6444;49.742;6.114;2023-04-24T12:29:22;5.65;;;5.05;;
12760;SDS011;6444;49.742;6.114;2023-04-24T12:31:49;6.22;;;4.55;;
12760;SDS011;6444;49.742;6.114;2023-04-24T12:34:19;6.30;;;5.47;;
12760;SDS011;6444;49.742;6.114;2023-04-24T12:36:48;6.53;;;5.55;;
12760;SDS011;6444;49.742;6.114;2023-04-24T12:39:15;7.20;;;5.47;;
12760;SDS011;6444;49.742;6.114;2023-04-24T12:41:57;6.90;;;5.30;;
12760;SDS011;6444;49.742;6.114;2023-04-24T12:44:34;6.68;;;5.95;;
12760;SDS011;6444;49.742;6.114;2023-04-24T12:47:00;6.75;;;5.70;;
12760;SDS011;6444;49.742;6.114;2023-04-24T12:49:27;7.37;;;5.57;;
12760;SDS011;6444;49.742;6.114;2023-04-24T12:51:53;5.85;;;5.20;;
12760;SDS011;6444;49.742;6.114;2023-04-24T12:54:20;7.13;;;6.03;;
12760;SDS011;6444;49.742;6.114;2023-04-24T12:56:47;6.18;;;4.90;;
12760;SDS011;6444;49.742;6.114;2023-04-24T12:59:13;7.30;;;5.45;;
12760;SDS011;6444;49.742;6.114;2023-04-24T13:01:40;6.05;;;5.05;;
12760;SDS011;6444;49.742;6.114;2023-04-24T13:04:06;8.27;;;5.37;;
12760;SDS011;6444;49.742;6.114;2023-04-24T13:06:33;6.72;;;5.90;;
12760;SDS011;6444;49.742;6.114;2023-04-24T13:09:00;4.78;;;4.32;;
12760;SDS011;6444;49.742;6.114;2023-04-24T13:11:27;6.65;;;5.22;;
12760;SDS011;6444;49.742;6.114;2023-04-24T13:13:54;5.43;;;4.85;;
12760;SDS011;6444;49.742;6.114;2023-04-24T13:16:21;7.53;;;5.80;;
12760;SDS011;6444;49.742;6.114;2023-04-24T13:18:47;6.62;;;5.28;;
12760;SDS011;6444;49.742;6.114;2023-04-24T13:21:14;7.05;;;5.47;;
12760;SDS011;6444;49.742;6.114;2023-04-24T13:23:41;5.37;;;4.30;;
12760;SDS011;6444;49.742;6.114;2023-04-24T13:26:07;6.28;;;4.85;;
12760;SDS011;6444;49.742;6.114;2023-04-24T13:28:34;5.60;;;4.80;;
12760;SDS011;6444;49.742;6.114;2023-04-24T13:31:01;5.78;;;4.90;;
12760;SDS011;6444;49.742;6.114;2023-04-24T13:33:28;5.28;;;4.78;;
12760;SDS011;6444;49.742;6.114;2023-04-24T13:35:55;7.25;;;5.47;;
12760;SDS011;6444;49.742;6.114;2023-04-24T13:38:21;7.40;;;5.30;;
12760;SDS011;6444;49.742;6.114;2023-04-24T13:40:48;6.07;;;5.05;;
12760;SDS011;6444;49.742;6.114;2023-04-24T13:43:15;8.47;;;7.53;;
12760;SDS011;6444;49.742;6.114;2023-04-24T13:45:42;8.63;;;6.93;;
12760;SDS011;6444;49.742;6.114;2023-04-24T13:48:09;7.60;;;6.75;;
12760;SDS011;6444;49.742;6.114;2023-04-24T13:50:35;7.45;;;6.60;;
12760;SDS011;6444;49.742;6.114;2023-04-24T13:53:02;10.50;;;7.87;;
12760;SDS011;6444;49.742;6.114;2023-04-24T13:55:28;8.38;;;7.30;;
12760;SDS011;6444;49.742;6.114;2023-04-24T13:57:56;8.77;;;7.82;;
12760;SDS011;6444;49.742;6.114;2023-04-24T14:00:22;11.27;;;7.37;;
12760;SDS011;6444;49.742;6.114;2023-04-24T14:02:49;8.38;;;7.53;;
12760;SDS011;6444;49.742;6.114;2023-04-24T14:05:16;9.63;;;7.78;;
12760;SDS011;6444;49.742;6.114;2023-04-24T14:07:43;10.43;;;7.78;;
12760;SDS011;6444;49.742;6.114;2023-04-24T14:10:10;8.77;;;7.75;;
12760;SDS011;6444;49.742;6.114;2023-04-24T14:12:36;9.30;;;7.35;;
12760;SDS011;6444;49.742;6.114;2023-04-24T14:15:03;9.13;;;7.50;;
12760;SDS011;6444;49.742;6.114;2023-04-24T14:17:30;8.15;;;7.18;;
12760;SDS011;6444;49.742;6.114;2023-04-24T14:19:56;8.25;;;7.37;;
12760;SDS011;6444;49.742;6.114;2023-04-24T14:22:23;9.07;;;8.25;;
12760;SDS011;6444;49.742;6.114;2023-04-24T14:24:50;7.47;;;6.78;;
12760;SDS011;6444;49.742;6.114;2023-04-24T14:27:16;7.80;;;6.97;;
12760;SDS011;6444;49.742;6.114;2023-04-24T14:29:43;7.22;;;6.53;;
12760;SDS011;6444;49.742;6.114;2023-04-24T14:32:09;6.90;;;6.20;;
12760;SDS011;6444;49.742;6.114;2023-04-24T14:34:36;6.85;;;5.40;;
12760;SDS011;6444;49.742;6.114;2023-04-24T14:37:03;4.90;;;4.50;;
12760;SDS011;6444;49.742;6.114;2023-04-24T14:39:29;4.18;;;3.80;;
12760;SDS011;6444;49.742;6.114;2023-04-24T14:41:56;5.85;;;4.45;;
12760;SDS011;6444;49.742;6.114;2023-04-24T14:44:23;6.18;;;3.75;;
12760;SDS011;6444;49.742;6.114;2023-04-24T14:46:50;4.43;;;4.00;;
12760;SDS011;6444;49.742;6.114;2023-04-24T14:49:17;4.37;;;3.37;;
12760;SDS011;6444;49.742;6.114;2023-04-24T14:51:43;3.28;;;2.75;;
12760;SDS011;6444;49.742;6.114;2023-04-24T14:54:10;3.12;;;2.80;;
12760;SDS011;6444;49.742;6.114;2023-04-24T14:56:37;3.45;;;2.90;;
12760;SDS011;6444;49.742;6.114;2023-04-24T14:59:04;3.90;;;3.50;;